Time;durP1;ratioP1;P1;durP2;ratioP2;P2;SDS_P1;SDS_P2;PMS_P1;PMS_P2;Temp;Humidity;BMP_temperature;BMP_pressure;BME280_temperature;BME280_humidity;BME280_pressure;Samples;Min_cycle;Max_cycle;Signal;HPM_P1;HPM_P2
2023/06/15 00:00:21;;;;;;;0.00;0.00;;;16.70;99.90;;;;;;7367160;19;20195;-69
2023/06/15 00:02:49;;;;;;;0.00;0.00;;;16.60;99.90;;;;;;7368644;19;20534;-68
2023/06/15 00:05:19;;;;;;;0.00;0.00;;;16.50;99.90;;;;;;7367737;19;20137;-69
2023/06/15 00:07:47;;;;;;;0.00;0.00;;;16.60;99.90;;;;;;7370503;19;20140;-69
2023/06/15 00:10:16;;;;;;;0.00;0.00;;;16.50;99.90;;;;;;7368467;19;20225;-68
2023/06/15 00:12:44;;;;;;;0.00;0.00;;;16.50;99.90;;;;;;7370530;19;20141;-69
2023/06/15 00:15:13;;;;;;;0.00;0.00;;;16.50;99.90;;;;;;7367206;19;20165;-68
2023/06/15 00:17:45;;;;;;;0.00;0.00;;;16.50;99.90;;;;;;7370173;19;20156;-69
2023/06/15 00:20:17;;;;;;;0.03;0.03;;;16.40;99.90;;;;;;7368805;19;20228;-69
2023/06/15 00:22:49;;;;;;;0.00;0.00;;;16.40;99.90;;;;;;7363149;19;20160;-68
2023/06/15 00:25:18;;;;;;;0.00;0.00;;;16.40;99.90;;;;;;7368006;19;20160;-68
2023/06/15 00:27:47;;;;;;;0.00;0.00;;;;;;;;;;7370000;19;20178;-69
2023/06/15 00:30:16;;;;;;;0.00;0.00;;;;;;;;;;7366943;19;20181;-70
2023/06/15 00:32:47;;;;;;;0.00;0.00;;;;;;;;;;7369199;19;20156;-68
2023/06/15 00:35:16;;;;;;;0.00;0.00;;;;;;;;;;7370025;19;20204;-68
2023/06/15 00:37:45;;;;;;;0.00;0.00;;;;;;;;;;7370071;19;20160;-69
2023/06/15 00:40:14;;;;;;;0.00;0.00;;;;;;;;;;7368842;19;20180;-68
2023/06/15 00:42:44;;;;;;;0.00;0.00;;;;;;;;;;7368721;19;20490;-68
2023/06/15 00:45:13;;;;;;;0.10;0.10;;;;;;;;;;7370419;19;20158;-69
2023/06/15 00:47:43;;;;;;;0.10;0.10;;;;;;;;;;7369761;19;20232;-68
2023/06/15 00:50:18;;;;;;;0.00;0.00;;;;;;;;;;7365363;19;20188;-69
2023/06/15 00:52:47;;;;;;;0.10;0.10;;;;;;;;;;7370310;19;20175;-70
2023/06/15 00:55:17;;;;;;;0.00;0.00;;;;;;;;;;7369705;19;20136;-68
2023/06/15 00:57:49;;;;;;;0.03;0.03;;;;;;;;;;7369986;19;20160;-68
2023/06/15 01:00:18;;;;;;;0.00;0.00;;;;;;;;;;7367170;19;20180;-68
2023/06/15 01:02:48;;;;;;;0.00;0.00;;;;;;;;;;7369655;19;20144;-69
2023/06/15 01:05:22;;;;;;;0.00;0.00;;;15.60;99.90;;;;;;7367490;19;20153;-69
2023/06/15 01:07:52;;;;;;;0.10;0.10;;;15.70;99.90;;;;;;7368724;19;20184;-69
2023/06/15 01:10:24;;;;;;;0.00;0.00;;;15.60;99.90;;;;;;7365025;19;20191;-68
2023/06/15 01:12:54;;;;;;;0.00;0.00;;;15.50;99.90;;;;;;7369923;19;20144;-68
2023/06/15 01:15:23;;;;;;;0.10;0.10;;;;;;;;;;7367899;19;20156;-68
2023/06/15 01:17:54;;;;;;;0.00;0.00;;;;;;;;;;7369484;19;20149;-68
2023/06/15 01:20:29;;;;;;;0.00;0.00;;;;;;;;;;7366050;19;20193;-68
2023/06/15 01:23:05;;;;;;;0.00;0.00;;;;;;;;;;7368137;19;20149;-68
2023/06/15 01:25:34;;;;;;;0.10;0.10;;;;;;;;;;7370259;19;20189;-68
2023/06/15 01:28:09;;;;;;;0.00;0.00;;;;;;;;;;7375750;19;20182;-68
2023/06/15 01:30:40;;;;;;;0.10;0.10;;;;;;;;;;7375459;19;20160;-68
2023/06/15 01:33:10;;;;;;;0.00;0.00;;;;;;;;;;7373930;19;20157;-69
2023/06/15 01:35:41;;;;;;;0.00;0.00;;;;;;;;;;7376562;19;20152;-69
2023/06/15 01:38:13;;;;;;;0.00;0.00;;;;;;;;;;7375933;19;20161;-68
2023/06/15 01:40:42;;;;;;;0.00;0.00;;;;;;;;;;7375133;19;20526;-69
2023/06/15 01:43:16;;;;;;;0.00;0.00;;;15.20;99.90;;;;;;7373738;19;20224;-69
2023/06/15 01:45:46;;;;;;;0.00;0.00;;;15.00;99.90;;;;;;7376783;19;20165;-70
2023/06/15 01:48:16;;;;;;;0.00;0.00;;;;;;;;;;7374424;19;20176;-70
2023/06/15 01:50:45;;;;;;;0.00;0.00;;;;;;;;;;7372653;19;20180;-70
2023/06/15 01:53:14;;;;;;;0.03;0.03;;;;;;;;;;7373337;19;20156;-68
2023/06/15 01:55:43;;;;;;;0.00;0.00;;;;;;;;;;7377300;19;20156;-69
2023/06/15 01:58:15;;;;;;;0.00;0.00;;;;;;;;;;7376536;19;20137;-68
2023/06/15 02:00:44;;;;;;;0.10;0.10;;;;;;;;;;7373325;19;20197;-69
2023/06/15 02:03:13;;;;;;;0.00;0.00;;;;;;;;;;7373654;19;20140;-68
2023/06/15 02:05:42;;;;;;;0.10;0.10;;;;;;;;;;7376071;19;20214;-68
2023/06/15 02:08:12;;;;;;;0.00;0.00;;;;;;;;;;7374485;19;20267;-68
2023/06/15 02:10:41;;;;;;;0.00;0.00;;;;;;;;;;7372207;19;20209;-69
2023/06/15 02:13:11;;;;;;;0.00;0.00;;;;;;;;;;7373967;19;20157;-68
2023/06/15 02:15:43;;;;;;;0.10;0.10;;;;;;;;;;7375225;19;20243;-68
2023/06/15 02:18:15;;;;;;;0.00;0.00;;;13.60;99.90;;;;;;7374752;19;20219;-68
2023/06/15 02:20:47;;;;;;;0.10;0.10;;;13.60;99.90;;;;;;7371789;19;20186;-69
2023/06/15 02:23:17;;;;;;;0.10;0.10;;;13.50;99.90;;;;;;7374722;19;20215;-68
2023/06/15 02:25:47;;;;;;;0.10;0.10;;;;;;;;;;7374158;19;20152;-69
2023/06/15 02:28:16;;;;;;;0.00;0.00;;;13.40;99.90;;;;;;7372591;19;20165;-70
2023/06/15 02:30:47;;;;;;;0.10;0.10;;;;;;;;;;7369496;19;20263;-69
2023/06/15 02:33:16;;;;;;;0.10;0.10;;;;;;;;;;7371038;19;20156;-69
2023/06/15 02:35:45;;;;;;;0.10;0.10;;;;;;;;;;7374452;19;20640;-68
2023/06/15 02:38:14;;;;;;;0.10;0.10;;;;;;;;;;7372230;19;20149;-70
2023/06/15 02:40:43;;;;;;;0.10;0.10;;;;;;;;;;7371901;19;20199;-68
2023/06/15 02:43:12;;;;;;;0.00;0.00;;;;;;;;;;7374157;19;20204;-69
2023/06/15 02:45:41;;;;;;;0.10;0.10;;;;;;;;;;7373636;19;20164;-68
2023/06/15 02:48:12;;;;;;;0.00;0.00;;;;;;;;;;7374528;19;20637;-68
2023/06/15 02:50:42;;;;;;;0.10;0.10;;;;;;;;;;7369373;19;20207;-68
2023/06/15 02:53:24;;;;;;;0.10;0.10;;;;;;;;;;7370314;19;20181;-70
2023/06/15 02:55:57;;;;;;;0.00;0.00;;;;;;;;;;7373015;19;20156;-69
2023/06/15 02:58:27;;;;;;;0.00;0.00;;;;;;;;;;7371598;19;20153;-68
2023/06/15 03:01:15;;;;;;;0.10;0.10;;;;;;;;;;7371585;19;20160;-68
2023/06/15 03:03:59;;;;;;;0.10;0.10;;;;;;;;;;7372933;19;20158;-69
2023/06/15 03:06:29;;;;;;;0.10;0.10;;;;;;;;;;7370807;19;20153;-68
2023/06/15 03:09:00;;;;;;;0.10;0.10;;;;;;;;;;7371665;19;20168;-68
2023/06/15 03:11:32;;;;;;;0.10;0.10;;;;;;;;;;7368744;19;20183;-68
2023/06/15 03:14:02;;;;;;;0.10;0.10;;;;;;;;;;7371141;19;20165;-69
2023/06/15 03:16:46;;;;;;;0.10;0.10;;;;;;;;;;7373725;19;20152;-70
2023/06/15 03:19:18;;;;;;;0.10;0.10;;;;;;;;;;7370280;19;20148;-69
2023/06/15 03:21:49;;;;;;;0.10;0.10;;;;;;;;;;7369699;19;20180;-70
2023/06/15 03:24:20;;;;;;;0.00;0.00;;;;;;;;;;7371570;19;20228;-68
2023/06/15 03:26:50;;;;;;;0.10;0.10;;;;;;;;;;7372180;19;20169;-68
2023/06/15 03:29:26;;;;;;;0.10;0.10;;;;;;;;;;7370337;19;20153;-69
2023/06/15 03:31:56;;;;;;;0.10;0.10;;;;;;;;;;7368957;19;20764;-68
2023/06/15 03:34:28;;;;;;;0.10;0.10;;;;;;;;;;7370162;19;20242;-69
2023/06/15 03:36:57;;;;;;;0.10;0.10;;;;;;;;;;7371262;19;20149;-68
2023/06/15 03:39:26;;;;;;;0.10;0.10;;;;;;;;;;7369336;19;20177;-69
2023/06/15 03:41:55;;;;;;;0.10;0.10;;;;;;;;;;7368819;19;20522;-69
2023/06/15 03:44:23;;;;;;;0.10;0.10;;;;;;;;;;7371658;19;20169;-70
2023/06/15 03:46:53;;;;;;;0.10;0.10;;;;;;;;;;7371093;19;20173;-67
2023/06/15 03:49:22;;;;;;;0.10;0.10;;;;;;;;;;7367771;19;20156;-68
2023/06/15 03:51:54;;;;;;;0.10;0.10;;;;;;;;;;7368153;19;20207;-68
2023/06/15 03:54:23;;;;;;;0.10;0.10;;;;;;;;;;7372370;19;20144;-70
2023/06/15 03:56:52;;;;;;;0.10;0.10;;;;;;;;;;7371762;19;20229;-69
2023/06/15 03:59:23;;;;;;;0.00;0.00;;;;;;;;;;7369825;19;20153;-69
2023/06/15 04:01:52;;;;;;;0.07;0.07;;;;;;;;;;7369086;19;20159;-68
2023/06/15 04:04:22;;;;;;;0.00;0.00;;;;;;;;;;7369774;19;20153;-68
2023/06/15 04:06:53;;;;;;;0.10;0.10;;;;;;;;;;7370367;19;20152;-70
2023/06/15 04:09:24;;;;;;;0.00;0.00;;;;;;;;;;7368695;19;20220;-70
2023/06/15 04:11:53;;;;;;;0.10;0.10;;;;;;;;;;7366622;19;20184;-70
2023/06/15 04:14:22;;;;;;;0.00;0.00;;;;;;;;;;7369509;19;20157;-69
2023/06/15 04:16:52;;;;;;;0.00;0.00;;;;;;;;;;7370740;19;20604;-68
2023/06/15 04:19:22;;;;;;;0.10;0.10;;;;;;;;;;7369303;19;20163;-68
2023/06/15 04:21:51;;;;;;;0.00;0.00;;;;;;;;;;7367332;19;20212;-68
2023/06/15 04:24:21;;;;;;;0.10;0.10;;;;;;;;;;7367479;19;20156;-69
2023/06/15 04:26:52;;;;;;;0.10;0.10;;;;;;;;;;7370830;19;20155;-68
2023/06/15 04:29:22;;;;;;;0.00;0.00;;;;;;;;;;7369224;19;20159;-68
2023/06/15 04:31:54;;;;;;;0.00;0.00;;;;;;;;;;7367200;19;20188;-67
2023/06/15 04:34:26;;;;;;;0.10;0.10;;;;;;;;;;7367454;19;20168;-67
2023/06/15 04:36:56;;;;;;;0.07;0.07;;;;;;;;;;7357710;19;20156;-68
2023/06/15 04:39:26;;;;;;;0.10;0.10;;;;;;;;;;7357054;19;20224;-68
2023/06/15 04:42:02;;;;;;;0.10;0.10;;;;;;;;;;7363234;19;20180;-68
2023/06/15 04:44:32;;;;;;;0.00;0.00;;;;;;;;;;7364584;19;20164;-66
2023/06/15 04:47:03;;;;;;;0.00;0.00;;;;;;;;;;7367018;19;20148;-68
2023/06/15 04:49:33;;;;;;;0.10;0.10;;;;;;;;;;7365309;19;20254;-66
2023/06/15 04:52:03;;;;;;;0.07;0.07;;;;;;;;;;7369049;19;20160;-68
2023/06/15 04:54:35;;;;;;;0.00;0.00;;;;;;;;;;7367531;19;20149;-68
2023/06/15 04:57:08;;;;;;;0.10;0.10;;;;;;;;;;7369246;19;20167;-68
2023/06/15 04:59:39;;;;;;;0.10;0.10;;;;;;;;;;7367959;19;20176;-69
2023/06/15 05:02:10;;;;;;;0.10;0.10;;;;;;;;;;7376425;19;20163;-67
2023/06/15 05:04:41;;;;;;;0.00;0.00;;;;;;;;;;7374766;19;20152;-68
2023/06/15 05:07:10;;;;;;;0.00;0.00;;;;;;;;;;7375974;19;20157;-69
2023/06/15 05:09:45;;;;;;;0.00;0.00;;;;;;;;;;7372536;19;20163;-69
2023/06/15 05:12:22;;;;;;;0.00;0.00;;;;;;;;;;7373242;19;20780;-68
2023/06/15 05:14:51;;;;;;;0.00;0.00;;;;;;;;;;7376766;19;20205;-68
2023/06/15 05:17:20;;;;;;;0.00;0.00;;;;;;;;;;7375217;19;20172;-68
2023/06/15 05:19:51;;;;;;;0.00;0.00;;;;;;;;;;7368956;19;20236;-69
2023/06/15 05:22:20;;;;;;;0.00;0.00;;;;;;;;;;7372399;19;20153;-68
2023/06/15 05:24:49;;;;;;;0.00;0.00;;;;;;;;;;7374160;19;20148;-68
2023/06/15 05:27:18;;;;;;;0.00;0.00;;;;;;;;;;7373891;19;20216;-68
2023/06/15 05:29:51;;;;;;;0.00;0.00;;;;;;;;;;7375113;19;20160;-68
2023/06/15 05:32:20;;;;;;;0.00;0.00;;;;;;;;;;7372678;19;20164;-67
2023/06/15 05:34:49;;;;;;;0.00;0.00;;;;;;;;;;7375563;19;20148;-68
2023/06/15 05:37:18;;;;;;;0.00;0.00;;;;;;;;;;7375727;19;20152;-68
2023/06/15 05:39:48;;;;;;;0.10;0.10;;;;;;;;;;7374653;19;20136;-69
2023/06/15 05:42:17;;;;;;;0.00;0.00;;;;;;;;;;7374796;19;20163;-67
2023/06/15 05:44:52;;;;;;;0.00;0.00;;;;;;;;;;7374678;19;20216;-67
2023/06/15 05:47:21;;;;;;;0.00;0.00;;;;;;;;;;7375223;19;20144;-67
2023/06/15 05:49:50;;;;;;;0.00;0.00;;;;;;;;;;7372821;19;20224;-68
2023/06/15 05:52:20;;;;;;;0.00;0.00;;;;;;;;;;7375389;19;20650;-68
2023/06/15 05:54:49;;;;;;;0.00;0.00;;;;;;;;;;7375257;19;20152;-67
2023/06/15 05:57:18;;;;;;;0.00;0.00;;;;;;;;;;7375607;19;20352;-68
2023/06/15 05:59:47;;;;;;;0.00;0.00;;;;;;;;;;7372514;19;20169;-68
2023/06/15 06:02:18;;;;;;;0.00;0.00;;;;;;;;;;7374925;19;20158;-67
2023/06/15 06:04:48;;;;;;;0.00;0.00;;;;;;;;;;7373975;19;20157;-68
2023/06/15 06:07:18;;;;;;;0.00;0.00;;;;;;;;;;7375115;19;20160;-68
2023/06/15 06:09:47;;;;;;;0.00;0.00;;;;;;;;;;7371768;19;20167;-67
2023/06/15 06:12:17;;;;;;;0.00;0.00;;;;;;;;;;7370892;19;20149;-69
2023/06/15 06:14:46;;;;;;;0.00;0.00;;;;;;;;;;7374984;19;20180;-68
2023/06/15 06:17:18;;;;;;;0.00;0.00;;;;;;;;;;7374698;19;20775;-68
2023/06/15 06:19:51;;;;;;;0.00;0.00;;;;;;;;;;7374985;19;20129;-68
2023/06/15 06:22:21;;;;;;;0.00;0.00;;;;;;;;;;7372155;19;20155;-67
2023/06/15 06:24:49;;;;;;;0.00;0.00;;;;;;;;;;7372643;19;20166;-69
2023/06/15 06:27:18;;;;;;;0.00;0.00;;;;;;;;;;7371835;19;20157;-67
2023/06/15 06:29:48;;;;;;;0.00;0.00;;;;;;;;;;7372778;19;20133;-68
2023/06/15 06:32:20;;;;;;;0.00;0.00;;;;;;;;;;7371081;19;20160;-67
2023/06/15 06:34:49;;;;;;;0.00;0.00;;;21.10;99.90;;;;;;7373975;19;20168;-68
2023/06/15 06:37:17;;;;;;;0.00;0.00;;;;;;;;;;7376134;19;20196;-67
2023/06/15 06:39:46;;;;;;;0.00;0.00;;;21.50;99.90;;;;;;7373068;19;20157;-66
2023/06/15 06:42:15;;;;;;;0.00;0.00;;;22.00;99.90;;;;;;7374978;19;20164;-67
2023/06/15 06:44:49;;;;;;;0.00;0.00;;;22.20;99.90;;;;;;7372928;19;20212;-68
2023/06/15 06:47:21;;;;;;;0.00;0.00;;;22.40;99.90;;;;;;7375682;19;20198;-67
2023/06/15 06:49:49;;;;;;;0.00;0.00;;;22.50;99.90;;;;;;7371086;19;20149;-68
2023/06/15 06:52:18;;;;;;;0.00;0.00;;;22.40;99.90;;;;;;7371481;19;20167;-68
2023/06/15 06:54:46;;;;;;;0.00;0.00;;;22.40;99.90;;;;;;7368883;19;20485;-68
2023/06/15 06:57:15;;;;;;;0.00;0.00;;;22.30;99.90;;;;;;7375522;19;20141;-68
2023/06/15 06:59:43;;;;;;;0.00;0.00;;;22.20;99.90;;;;;;7372609;19;20188;-68
2023/06/15 07:02:12;;;;;;;0.00;0.00;;;22.40;99.90;;;;;;7373652;19;20248;-68
2023/06/15 07:04:43;;;;;;;0.00;0.00;;;22.60;99.90;;;;;;7374378;19;20151;-68
2023/06/15 07:07:12;;;;;;;0.00;0.00;;;22.50;99.90;;;;;;7375295;19;20196;-68
2023/06/15 07:09:41;;;;;;;0.00;0.00;;;22.50;99.90;;;;;;7369364;19;20212;-69
2023/06/15 07:12:11;;;;;;;0.00;0.00;;;22.60;99.90;;;;;;7367454;19;20147;-68
2023/06/15 07:14:40;;;;;;;0.00;0.00;;;22.80;99.90;;;;;;7366976;19;20686;-69
2023/06/15 07:17:09;;;;;;;0.00;0.00;;;23.10;99.90;;;;;;7369927;19;20137;-69
2023/06/15 07:19:37;;;;;;;0.00;0.00;;;23.40;99.90;;;;;;7368226;19;20165;-68
2023/06/15 07:22:09;;;;;;;0.00;0.00;;;23.50;99.90;;;;;;7369857;19;20145;-68
2023/06/15 07:24:38;;;;;;;0.00;0.00;;;;;;;;;;7365920;19;20148;-69
2023/06/15 07:27:07;;;;;;;0.00;0.00;;;23.60;99.90;;;;;;7370658;19;20148;-67
2023/06/15 07:29:39;;;;;;;0.00;0.00;;;23.90;99.90;;;;;;7367835;19;20125;-68
2023/06/15 07:32:08;;;;;;;0.00;0.00;;;23.80;99.90;;;;;;7367238;19;20141;-68
2023/06/15 07:34:37;;;;;;;0.00;0.00;;;23.90;99.90;;;;;;7367493;19;20175;-68
2023/06/15 07:37:08;;;;;;;0.00;0.00;;;;;;;;;;7368371;19;20152;-69
2023/06/15 07:39:37;;;;;;;0.00;0.00;;;24.20;99.90;;;;;;7365529;19;20157;-68
2023/06/15 07:42:06;;;;;;;0.00;0.00;;;;;;;;;;7367242;19;20851;-68
2023/06/15 07:44:35;;;;;;;0.00;0.00;;;;;;;;;;7369435;19;20153;-68
2023/06/15 07:47:03;;;;;;;0.00;0.00;;;25.20;99.90;;;;;;7368511;19;20148;-68
2023/06/15 07:49:32;;;;;;;0.00;0.00;;;25.10;99.90;;;;;;7365811;19;20198;-67
2023/06/15 07:52:00;;;;;;;0.00;0.00;;;25.30;99.90;;;;;;7366958;19;20153;-68
2023/06/15 07:54:32;;;;;;;0.00;0.00;;;25.30;99.90;;;;;;7366570;19;20149;-68
2023/06/15 07:57:00;;;;;;;0.00;0.00;;;25.30;99.90;;;;;;7367957;19;20152;-68
2023/06/15 07:59:29;;;;;;;0.00;0.00;;;;;;;;;;7365970;19;20160;-68
2023/06/15 08:01:58;;;;;;;0.00;0.00;;;;;;;;;;7363605;19;20237;-69
2023/06/15 08:04:27;;;;;;;0.00;0.00;;;;;;;;;;7368441;19;20136;-67
2023/06/15 08:06:56;;;;;;;0.00;0.00;;;25.90;99.90;;;;;;7369419;19;20141;-68
2023/06/15 08:09:24;;;;;;;0.00;0.00;;;26.20;99.90;;;;;;7368553;19;20133;-68
2023/06/15 08:11:56;;;;;;;0.00;0.00;;;26.30;99.90;;;;;;7363360;19;20180;-69
2023/06/15 08:14:25;;;;;;;0.00;0.00;;;26.60;99.90;;;;;;7365920;19;20156;-69
2023/06/15 08:16:54;;;;;;;17.07;4.10;;;;;;;;;;7368121;19;20164;-68
2023/06/15 08:19:23;;;;;;;0.00;0.00;;;27.00;99.90;;;;;;7367150;19;20136;-68
2023/06/15 08:21:52;;;;;;;0.00;0.00;;;;;;;;;;7364350;19;20166;-68
2023/06/15 08:24:21;;;;;;;0.00;0.00;;;;;;;;;;7365546;19;20157;-68
2023/06/15 08:26:50;;;;;;;0.00;0.00;;;;;;;;;;7367521;19;20132;-68
2023/06/15 08:29:22;;;;;;;0.00;0.00;;;;;;;;;;7366574;19;20156;-68
2023/06/15 08:31:51;;;;;;;0.00;0.00;;;;;;;;;;7364312;19;20151;-68
2023/06/15 08:34:20;;;;;;;0.00;0.00;;;;;;;;;;7366702;19;20129;-69
2023/06/15 08:36:49;;;;;;;0.00;0.00;;;;;;;;;;7365832;19;20152;-68
2023/06/15 08:39:18;;;;;;;0.00;0.00;;;27.80;99.90;;;;;;7367093;19;20152;-68
2023/06/15 08:41:49;;;;;;;0.00;0.00;;;28.00;99.90;;;;;;7363439;19;20143;-68
2023/06/15 08:44:18;;;;;;;0.00;0.00;;;;;;;;;;7368915;19;20190;-68
2023/06/15 08:46:50;;;;;;;0.00;0.00;;;27.90;99.90;;;;;;7366238;19;20161;-68
2023/06/15 08:49:18;;;;;;;0.00;0.00;;;28.10;99.90;;;;;;7367314;19;20145;-69
2023/06/15 08:51:48;;;;;;;0.00;0.00;;;;;;;;;;7364575;19;20163;-69
2023/06/15 08:54:18;;;;;;;0.00;0.00;;;;;;;;;;7364752;19;20141;-69
2023/06/15 08:56:47;;;;;;;0.00;0.00;;;;;;;;;;7364205;19;20149;-68
2023/06/15 08:59:16;;;;;;;0.00;0.00;;;;;;;;;;7364709;19;20216;-68
2023/06/15 09:01:45;;;;;;;0.00;0.00;;;;;;;;;;7362598;19;20227;-67
2023/06/15 09:04:19;;;;;;;0.00;0.00;;;;;;;;;;7367012;19;20145;-68
2023/06/15 09:06:48;;;;;;;0.00;0.00;;;;;;;;;;7367449;19;20144;-68
2023/06/15 09:09:17;;;;;;;0.00;0.00;;;;;;;;;;7366922;19;20155;-69
2023/06/15 09:11:46;;;;;;;0.00;0.00;;;;;;;;;;7361376;19;20187;-69
2023/06/15 09:14:15;;;;;;;0.00;0.00;;;;;;;;;;7365918;19;20162;-68
2023/06/15 09:16:46;;;;;;;0.00;0.00;;;;;;;;;;7367576;19;20137;-68
2023/06/15 09:19:19;;;;;;;0.00;0.00;;;;;;;;;;7364284;19;20149;-69
2023/06/15 09:21:52;;;;;;;0.00;0.00;;;;;;;;;;7363758;19;20157;-67
2023/06/15 09:24:21;;;;;;;0.00;0.00;;;;;;;;;;7366149;19;20611;-69
2023/06/15 09:26:50;;;;;;;0.00;0.00;;;;;;;;;;7363854;19;20164;-69
2023/06/15 09:29:19;;;;;;;0.00;0.00;;;;;;;;;;7366090;19;20139;-68
2023/06/15 09:31:48;;;;;;;0.00;0.00;;;;;;;;;;7360307;19;20218;-68
2023/06/15 09:34:21;;;;;;;0.00;0.00;;;;;;;;;;7366317;19;20197;-68
2023/06/15 09:36:51;;;;;;;0.00;0.00;;;;;;;;;;7364733;19;20161;-68
2023/06/15 09:39:23;;;;;;;0.00;0.00;;;;;;;;;;7366051;19;20152;-68
2023/06/15 09:41:56;;;;;;;0.00;0.00;;;;;;;;;;7362932;19;20149;-68
2023/06/15 09:44:26;;;;;;;0.00;0.00;;;;;;;;;;7365240;19;20141;-70
2023/06/15 09:46:55;;;;;;;0.00;0.00;;;;;;;;;;7366827;19;20164;-69
2023/06/15 09:49:27;;;;;;;0.00;0.00;;;;;;;;;;7371771;19;20820;-68
2023/06/15 09:51:57;;;;;;;0.00;0.00;;;;;;;;;;7368663;19;20145;-69
2023/06/15 09:54:28;;;;;;;0.00;0.00;;;;;;;;;;7370471;19;20220;-68
2023/06/15 09:56:57;;;;;;;0.00;0.00;;;;;;;;;;7372060;19;20506;-68
2023/06/15 09:59:26;;;;;;;0.00;0.00;;;;;;;;;;7370390;19;20618;-69
2023/06/15 10:01:58;;;;;;;0.00;0.00;;;;;;;;;;7366177;19;20180;-67
2023/06/15 10:04:32;;;;;;;0.00;0.00;;;;;;;;;;7370723;19;20153;-68
2023/06/15 10:07:02;;;;;;;0.00;0.00;;;;;;;;;;7373284;19;20136;-68
2023/06/15 10:09:34;;;;;;;0.00;0.00;;;;;;;;;;7370480;19;20164;-68
2023/06/15 10:12:07;;;;;;;0.00;0.00;;;;;;;;;;7369485;19;20167;-69
2023/06/15 10:14:38;;;;;;;0.00;0.00;;;;;;;;;;7370395;19;20156;-68
2023/06/15 10:17:07;;;;;;;0.00;0.00;;;;;;;;;;7372430;19;20164;-68
2023/06/15 10:19:43;;;;;;;0.00;0.00;;;;;;;;;;7371477;19;20132;-67
2023/06/15 10:22:18;;;;;;;0.00;0.00;;;;;;;;;;7372473;19;20132;-68
2023/06/15 10:24:47;;;;;;;0.00;0.00;;;;;;;;;;7372235;19;20139;-68
2023/06/15 10:27:17;;;;;;;0.00;0.00;;;;;;;;;;7369704;19;20140;-67
2023/06/15 10:29:50;;;;;;;0.00;0.00;;;;;;;;;;7370444;19;20147;-68
2023/06/15 10:32:21;;;;;;;0.00;0.00;;;;;;;;;;7369382;19;20137;-68
2023/06/15 10:34:56;;;;;;;0.00;0.00;;;;;;;;;;7369480;19;20157;-69
2023/06/15 10:37:27;;;;;;;0.00;0.00;;;;;;;;;;7370100;19;20192;-68
2023/06/15 10:39:57;;;;;;;0.00;0.00;;;;;;;;;;7370099;19;20157;-68
2023/06/15 10:42:26;;;;;;;0.00;0.00;;;;;;;;;;7370898;19;20153;-68
2023/06/15 10:44:55;;;;;;;0.00;0.00;;;;;;;;;;7370405;19;20156;-69
2023/06/15 10:47:25;;;;;;;0.00;0.00;;;;;;;;;;7373410;19;20132;-68
2023/06/15 10:49:57;;;;;;;0.00;0.00;;;;;;;;;;7368925;19;20277;-68
2023/06/15 10:52:36;;;;;;;0.00;0.00;;;;;;;;;;7368540;19;20170;-68
2023/06/15 10:55:09;;;;;;;0.00;0.00;;;;;;;;;;7367891;19;20149;-69
2023/06/15 10:57:38;;;;;;;0.00;0.00;;;;;;;;;;7365071;19;20175;-68
2023/06/15 11:00:10;;;;;;;0.00;0.00;;;;;;;;;;7369831;19;20149;-68
2023/06/15 11:02:52;;;;;;;0.00;0.00;;;;;;;;;;7368724;19;20129;-68
2023/06/15 11:05:24;;;;;;;0.00;0.00;;;;;;;;;;7370895;19;20568;-69
2023/06/15 11:07:54;;;;;;;0.00;0.00;;;;;;;;;;7370270;19;20137;-69
2023/06/15 11:10:31;;;;;;;0.00;0.00;;;;;;;;;;7368162;19;20252;-68
2023/06/15 11:13:03;;;;;;;0.00;0.00;;;;;;;;;;7368844;19;20128;-68
2023/06/15 11:15:36;;;;;;;0.00;0.00;;;;;;;;;;7368650;19;20141;-68
2023/06/15 11:18:06;;;;;;;0.00;0.00;;;;;;;;;;7369977;19;20156;-68
2023/06/15 11:21:00;;;;;;;0.00;0.00;;;;;;;;;;7368305;19;20144;-68
2023/06/15 11:23:32;;;;;;;0.00;0.00;;;;;;;;;;7370632;19;20244;-69
2023/06/15 11:26:02;;;;;;;0.00;0.00;;;;;;;;;;7370630;19;20137;-68
2023/06/15 11:28:33;;;;;;;0.00;0.00;;;;;;;;;;7369108;19;20144;-69
2023/06/15 11:31:03;;;;;;;0.00;0.00;;;;;;;;;;7367047;19;20152;-69
2023/06/15 11:33:35;;;;;;;0.00;0.00;;;;;;;;;;7368601;19;20682;-68
2023/06/15 11:36:11;;;;;;;0.00;0.00;;;;;;;;;;7369380;19;20165;-68
2023/06/15 11:38:40;;;;;;;0.00;0.00;;;;;;;;;;7370077;19;20136;-68
2023/06/15 11:41:10;;;;;;;0.00;0.00;;;;;;;;;;7367443;19;20152;-68
2023/06/15 11:43:42;;;;;;;0.00;0.00;;;;;;;;;;7369742;19;20165;-67
2023/06/15 11:46:14;;;;;;;0.00;0.00;;;;;;;;;;7371683;19;20144;-68
2023/06/15 11:48:43;;;;;;;0.00;0.00;;;;;;;;;;7368440;19;20149;-67
2023/06/15 11:51:16;;;;;;;0.00;0.00;;;;;;;;;;7366043;19;20153;-68
2023/06/15 11:53:46;;;;;;;0.00;0.00;;;;;;;;;;7366380;19;20160;-68
2023/06/15 11:56:16;;;;;;;0.00;0.00;;;;;;;;;;7368568;19;20145;-68
2023/06/15 11:58:44;;;;;;;0.00;0.00;;;;;;;;;;7345884;19;20157;-69
2023/06/15 12:01:15;;;;;;;0.00;0.00;;;;;;;;;;7354288;19;20168;-69
2023/06/15 12:03:47;;;;;;;0.00;0.00;;;;;;;;;;7360494;19;20165;-68
2023/06/15 12:06:22;;;;;;;0.00;0.00;;;27.60;99.90;;;;;;7361204;19;20158;-69
2023/06/15 12:08:54;;;;;;;0.00;0.00;;;27.90;99.90;;;;;;7361709;19;20160;-69
2023/06/15 12:11:23;;;;;;;0.00;0.00;;;27.90;99.90;;;;;;7361588;19;20528;-69
2023/06/15 12:13:52;;;;;;;0.00;0.00;;;27.80;99.90;;;;;;7364957;19;20140;-68
2023/06/15 12:16:21;;;;;;;0.00;0.00;;;27.70;99.90;;;;;;7358382;19;20140;-69
2023/06/15 12:18:56;;;;;;;0.00;0.00;;;27.40;99.90;;;;;;7359650;19;20132;-68
2023/06/15 12:21:31;;;;;;;0.00;0.00;;;27.20;99.90;;;;;;7359915;19;20197;-69
2023/06/15 12:23:59;;;;;;;0.00;0.00;;;26.70;99.90;;;;;;7364023;19;20207;-68
2023/06/15 12:26:33;;;;;;;0.00;0.00;;;26.50;99.90;;;;;;7367001;19;20168;-69
2023/06/15 12:29:02;;;;;;;0.00;0.00;;;26.30;99.90;;;;;;7364587;19;20149;-68
2023/06/15 12:31:35;;;;;;;0.00;0.00;;;26.30;99.90;;;;;;7363581;19;20183;-68
2023/06/15 12:34:09;;;;;;;0.00;0.00;;;26.40;99.90;;;;;;7363205;19;20152;-68
2023/06/15 12:36:42;;;;;;;0.00;0.00;;;26.40;99.90;;;;;;7366013;19;20152;-68
2023/06/15 12:39:13;;;;;;;0.00;0.00;;;26.50;99.90;;;;;;7365710;19;20156;-68
2023/06/15 12:41:44;;;;;;;0.00;0.00;;;26.40;99.90;;;;;;7358587;19;20257;-69
2023/06/15 12:44:14;;;;;;;0.00;0.00;;;26.60;99.90;;;;;;7366587;19;20146;-68
2023/06/15 12:46:42;;;;;;;0.00;0.00;;;26.30;99.90;;;;;;7362874;19;20179;-69
2023/06/15 12:49:12;;;;;;;0.00;0.00;;;26.30;99.90;;;;;;7366278;19;20133;-68
2023/06/15 12:51:46;;;;;;;0.00;0.00;;;26.30;99.90;;;;;;7364832;19;20149;-68
2023/06/15 12:54:15;;;;;;;0.00;0.00;;;26.30;99.90;;;;;;7367202;19;20140;-68
2023/06/15 12:56:43;;;;;;;0.00;0.00;;;26.20;99.90;;;;;;7366940;19;20208;-68
2023/06/15 12:59:12;;;;;;;0.00;0.00;;;26.30;99.90;;;;;;7365426;19;20696;-70
2023/06/15 13:01:40;;;;;;;0.00;0.00;;;26.40;99.90;;;;;;7361598;19;20232;-68
2023/06/15 13:04:09;;;;;;;0.00;0.00;;;26.30;99.90;;;;;;7364701;19;20157;-68
2023/06/15 13:06:38;;;;;;;0.00;0.00;;;26.40;99.90;;;;;;7365511;19;20149;-69
2023/06/15 13:09:09;;;;;;;0.00;0.00;;;26.40;99.90;;;;;;7364445;19;20145;-68
2023/06/15 13:11:38;;;;;;;0.00;0.00;;;26.40;99.90;;;;;;7364861;19;20153;-69
2023/06/15 13:14:08;;;;;;;0.00;0.00;;;26.50;99.90;;;;;;7364734;19;20133;-68
2023/06/15 13:16:37;;;;;;;0.00;0.00;;;26.60;99.90;;;;;;7369133;19;20144;-68
2023/06/15 13:19:07;;;;;;;0.00;0.00;;;26.60;99.90;;;;;;7366954;19;20240;-69
2023/06/15 13:21:35;;;;;;;0.00;0.00;;;26.70;99.90;;;;;;7365086;19;20177;-69
2023/06/15 13:24:04;;;;;;;0.00;0.00;;;26.50;99.90;;;;;;7373841;19;20141;-70
2023/06/15 13:26:35;;;;;;;0.00;0.00;;;26.30;99.90;;;;;;7374699;19;20145;-68
2023/06/15 13:29:05;;;;;;;0.00;0.00;;;26.10;99.90;;;;;;7370984;19;20286;-69
2023/06/15 13:31:34;;;;;;;0.00;0.00;;;26.00;99.90;;;;;;7368535;19;20240;-69
2023/06/15 13:34:03;;;;;;;0.00;0.00;;;25.80;99.90;;;;;;7368437;19;20179;-69
2023/06/15 13:36:31;;;;;;;0.00;0.00;;;25.80;99.90;;;;;;7371442;19;20157;-68
2023/06/15 13:39:00;;;;;;;0.00;0.00;;;25.70;99.90;;;;;;7371926;19;20184;-68
2023/06/15 13:41:28;;;;;;;0.00;0.00;;;25.80;99.90;;;;;;7368525;19;20176;-67
2023/06/15 13:44:00;;;;;;;0.00;0.00;;;25.50;99.90;;;;;;7371922;19;20213;-69
2023/06/15 13:46:30;;;;;;;0.00;0.00;;;25.60;99.90;;;;;;7373081;19;20141;-70
2023/06/15 13:49:00;;;;;;;0.00;0.00;;;25.60;99.90;;;;;;7372479;19;20158;-68
2023/06/15 13:51:29;;;;;;;0.00;0.00;;;25.60;99.90;;;;;;7365883;19;20200;-69
2023/06/15 13:53:58;;;;;;;0.00;0.00;;;25.70;99.90;;;;;;7368700;19;20160;-69
2023/06/15 13:56:28;;;;;;;0.00;0.00;;;25.60;99.90;;;;;;7370362;19;20151;-68
2023/06/15 13:59:03;;;;;;;0.00;0.00;;;25.60;99.90;;;;;;7372225;19;20160;-69
2023/06/15 14:01:32;;;;;;;0.00;0.00;;;25.70;99.90;;;;;;7367495;19;20184;-67
2023/06/15 14:04:01;;;;;;;0.00;0.00;;;25.80;99.90;;;;;;7371811;19;20161;-68
2023/06/15 14:06:30;;;;;;;0.00;0.00;;;25.80;99.90;;;;;;7372460;19;20136;-68
2023/06/15 14:08:58;;;;;;;0.00;0.00;;;25.90;99.90;;;;;;7369022;19;20188;-68
2023/06/15 14:11:27;;;;;;;0.00;0.00;;;25.90;99.90;;;;;;7368397;19;20149;-69
2023/06/15 14:13:58;;;;;;;0.00;0.00;;;25.80;99.90;;;;;;7361294;19;20707;-68
2023/06/15 14:16:29;;;;;;;0.00;0.00;;;25.90;99.90;;;;;;7371713;19;20129;-68
2023/06/15 14:18:58;;;;;;;0.00;0.00;;;25.90;99.90;;;;;;7366880;19;20152;-69